sensor_id;sensor_type;location;lat;lon;timestamp;pressure;altitude;pressure_sealevel;temperature;humidity
12247;BME280;6186;52.022;4.692;2023-05-24T00:00:09;102609.84;;;11.51;66.64
12247;BME280;6186;52.022;4.692;2023-05-24T00:02:34;102608.13;;;11.48;67.00
12247;BME280;6186;52.022;4.692;2023-05-24T00:04:59;102603.72;;;11.47;66.93
12247;BME280;6186;52.022;4.692;2023-05-24T00:07:25;102589.69;;;11.39;66.86
12247;BME280;6186;52.022;4.692;2023-05-24T00:09:50;102601.97;;;11.38;66.91
12247;BME280;6186;52.022;4.692;2023-05-24T00:12:15;102601.94;;;11.35;67.25
12247;BME280;6186;52.022;4.692;2023-05-24T00:14:41;102601.97;;;11.32;67.28
12247;BME280;6186;52.022;4.692;2023-05-24T00:17:06;102596.69;;;11.28;66.83
12247;BME280;6186;52.022;4.692;2023-05-24T00:19:31;102594.06;;;11.26;67.01
12247;BME280;6186;52.022;4.692;2023-05-24T00:21:56;102600.22;;;11.24;67.16
12247;BME280;6186;52.022;4.692;2023-05-24T00:24:22;102596.69;;;11.26;67.45
12247;BME280;6186;52.022;4.692;2023-05-24T00:26:47;102585.28;;;11.21;67.18
12247;BME280;6186;52.022;4.692;2023-05-24T00:29:12;102595.81;;;11.24;67.60
12247;BME280;6186;52.022;4.692;2023-05-24T00:31:37;102592.31;;;11.24;67.69
12247;BME280;6186;52.022;4.692;2023-05-24T00:34:03;102595.81;;;11.21;67.46
12247;BME280;6186;52.022;4.692;2023-05-24T00:36:28;102598.47;;;11.21;67.79
12247;BME280;6186;52.022;4.692;2023-05-24T00:38:53;102597.56;;;11.19;67.73
12247;BME280;6186;52.022;4.692;2023-05-24T00:41:18;102593.16;;;11.18;67.86
12247;BME280;6186;52.022;4.692;2023-05-24T00:43:44;102597.59;;;11.16;67.58
12247;BME280;6186;52.022;4.692;2023-05-24T00:46:14;102589.66;;;11.13;67.91
12247;BME280;6186;52.022;4.692;2023-05-24T00:48:40;102584.41;;;11.10;67.97
12247;BME280;6186;52.022;4.692;2023-05-24T00:51:06;102581.75;;;11.04;68.08
12247;BME280;6186;52.022;4.692;2023-05-24T00:53:32;102600.19;;;11.04;67.93
12247;BME280;6186;52.022;4.692;2023-05-24T00:55:59;102599.31;;;11.02;67.80
12247;BME280;6186;52.022;4.692;2023-05-24T00:58:25;102596.69;;;11.01;68.19
12247;BME280;6186;52.022;4.692;2023-05-24T01:00:51;102598.44;;;10.99;68.06
12247;BME280;6186;52.022;4.692;2023-05-24T01:03:18;102581.75;;;10.98;68.31
12247;BME280;6186;52.022;4.692;2023-05-24T01:05:43;102590.53;;;10.97;68.00
12247;BME280;6186;52.022;4.692;2023-05-24T01:08:14;102586.13;;;10.95;68.12
12247;BME280;6186;52.022;4.692;2023-05-24T01:10:53;102583.47;;;10.90;68.17
12247;BME280;6186;52.022;4.692;2023-05-24T01:13:38;102574.72;;;10.85;68.14
12247;BME280;6186;52.022;4.692;2023-05-24T01:16:14;102579.97;;;10.82;68.10
12247;BME280;6186;52.022;4.692;2023-05-24T01:18:46;102586.13;;;10.80;68.46
12247;BME280;6186;52.022;4.692;2023-05-24T01:24:11;102592.22;;;10.71;68.07
12247;BME280;6186;52.022;4.692;2023-05-24T01:27:12;102592.22;;;10.68;68.46
12247;BME280;6186;52.022;4.692;2023-05-24T01:29:38;102594.00;;;10.63;68.23
12247;BME280;6186;52.022;4.692;2023-05-24T01:32:04;102594.00;;;10.62;68.53
12247;BME280;6186;52.022;4.692;2023-05-24T01:34:30;102593.97;;;10.60;68.75
12247;BME280;6186;52.022;4.692;2023-05-24T01:36:55;102590.44;;;10.58;68.41
12247;BME280;6186;52.022;4.692;2023-05-24T01:39:23;102587.81;;;10.57;68.68
12247;BME280;6186;52.022;4.692;2023-05-24T01:44:32;102581.63;;;10.47;68.65
12247;BME280;6186;52.022;4.692;2023-05-24T01:50:19;102595.66;;;10.43;68.56
12247;BME280;6186;52.022;4.692;2023-05-24T01:52:48;102590.41;;;10.40;69.00
12247;BME280;6186;52.022;4.692;2023-05-24T01:55:16;102580.72;;;10.39;69.08
12247;BME280;6186;52.022;4.692;2023-05-24T01:57:44;102578.13;;;10.40;69.13
12247;BME280;6186;52.022;4.692;2023-05-24T02:00:13;102578.13;;;10.42;69.09
12247;BME280;6186;52.022;4.692;2023-05-24T02:02:38;102580.75;;;10.43;69.22
12247;BME280;6186;52.022;4.692;2023-05-24T02:05:04;102573.72;;;10.41;69.56
12247;BME280;6186;52.022;4.692;2023-05-24T02:07:29;102568.47;;;10.44;69.47
12247;BME280;6186;52.022;4.692;2023-05-24T02:09:54;102563.22;;;10.43;69.65
12247;BME280;6186;52.022;4.692;2023-05-24T02:12:19;102565.81;;;10.41;69.69
12247;BME280;6186;52.022;4.692;2023-05-24T02:14:45;102567.56;;;10.39;69.72
12247;BME280;6186;52.022;4.692;2023-05-24T02:17:10;102566.69;;;10.35;69.85
12247;BME280;6186;52.022;4.692;2023-05-24T02:19:35;102566.69;;;10.34;69.82
12247;BME280;6186;52.022;4.692;2023-05-24T02:22:00;102566.69;;;10.34;69.73
12247;BME280;6186;52.022;4.692;2023-05-24T02:24:26;102562.31;;;10.33;69.94
12247;BME280;6186;52.022;4.692;2023-05-24T02:26:51;102558.78;;;10.32;69.88
12247;BME280;6186;52.022;4.692;2023-05-24T02:29:16;102567.56;;;10.33;69.94
12247;BME280;6186;52.022;4.692;2023-05-24T02:31:41;102565.78;;;10.30;69.95
12247;BME280;6186;52.022;4.692;2023-05-24T02:34:06;102565.75;;;10.26;69.94
12247;BME280;6186;52.022;4.692;2023-05-24T02:36:32;102560.53;;;10.27;70.35
12247;BME280;6186;52.022;4.692;2023-05-24T02:38:57;102569.28;;;10.25;70.47
12247;BME280;6186;52.022;4.692;2023-05-24T02:41:22;102565.78;;;10.23;70.35
12247;BME280;6186;52.022;4.692;2023-05-24T02:43:47;102569.25;;;10.22;70.43
12247;BME280;6186;52.022;4.692;2023-05-24T02:46:13;102575.41;;;10.21;70.58
12247;BME280;6186;52.022;4.692;2023-05-24T02:48:39;102574.53;;;10.19;70.66
12247;BME280;6186;52.022;4.692;2023-05-24T02:51:04;102565.75;;;10.17;70.51
12247;BME280;6186;52.022;4.692;2023-05-24T02:53:30;102572.75;;;10.15;70.79
12247;BME280;6186;52.022;4.692;2023-05-24T02:55:55;102580.63;;;10.16;70.91
12247;BME280;6186;52.022;4.692;2023-05-24T02:58:20;102579.78;;;10.17;71.31
12247;BME280;6186;52.022;4.692;2023-05-24T03:00:46;102586.81;;;10.20;71.00
12247;BME280;6186;52.022;4.692;2023-05-24T03:03:11;102573.63;;;10.14;71.03
12247;BME280;6186;52.022;4.692;2023-05-24T03:05:36;102584.16;;;10.17;71.30
12247;BME280;6186;52.022;4.692;2023-05-24T03:08:02;102584.16;;;10.15;71.17
12247;BME280;6186;52.022;4.692;2023-05-24T03:10:27;102589.41;;;10.15;71.54
12247;BME280;6186;52.022;4.692;2023-05-24T03:12:52;102575.38;;;10.15;71.40
12247;BME280;6186;52.022;4.692;2023-05-24T03:15:17;102579.78;;;10.16;71.61
12247;BME280;6186;52.022;4.692;2023-05-24T03:17:43;102577.13;;;10.14;71.47
12247;BME280;6186;52.022;4.692;2023-05-24T03:20:08;102570.09;;;10.13;71.86
12247;BME280;6186;52.022;4.692;2023-05-24T03:22:33;102572.75;;;10.15;71.88
12247;BME280;6186;52.022;4.692;2023-05-24T03:24:59;102563.09;;;10.14;71.88
12247;BME280;6186;52.022;4.692;2023-05-24T03:27:24;102565.75;;;10.14;72.04
12247;BME280;6186;52.022;4.692;2023-05-24T03:29:49;102565.75;;;10.14;71.96
12247;BME280;6186;52.022;4.692;2023-05-24T03:32:14;102559.59;;;10.13;72.00
12247;BME280;6186;52.022;4.692;2023-05-24T03:34:40;102546.44;;;10.15;72.46
12247;BME280;6186;52.022;4.692;2023-05-24T03:37:05;102557.84;;;10.17;72.44
12247;BME280;6186;52.022;4.692;2023-05-24T03:39:30;102556.09;;;10.16;72.29
12247;BME280;6186;52.022;4.692;2023-05-24T03:41:55;102554.31;;;10.16;72.34
12247;BME280;6186;52.022;4.692;2023-05-24T03:44:20;102551.69;;;10.12;72.78
12247;BME280;6186;52.022;4.692;2023-05-24T03:46:46;102528.81;;;10.00;72.55
12247;BME280;6186;52.022;4.692;2023-05-24T03:49:11;102545.53;;;10.10;72.63
12247;BME280;6186;52.022;4.692;2023-05-24T03:51:36;102555.22;;;10.14;73.00
12247;BME280;6186;52.022;4.692;2023-05-24T03:54:01;102549.94;;;10.14;73.14
12247;BME280;6186;52.022;4.692;2023-05-24T03:56:27;102549.94;;;10.14;73.18
12247;BME280;6186;52.022;4.692;2023-05-24T03:58:52;102554.31;;;10.15;73.37
12247;BME280;6186;52.022;4.692;2023-05-24T04:01:18;102561.34;;;10.14;73.22
12247;BME280;6186;52.022;4.692;2023-05-24T04:03:43;102561.34;;;10.13;73.38
12247;BME280;6186;52.022;4.692;2023-05-24T04:06:08;102574.50;;;10.13;73.36
12247;BME280;6186;52.022;4.692;2023-05-24T04:08:33;102577.13;;;10.13;73.41
12247;BME280;6186;52.022;4.692;2023-05-24T04:10:59;102574.50;;;10.13;73.61
12247;BME280;6186;52.022;4.692;2023-05-24T04:13:24;102578.00;;;10.12;73.70
12247;BME280;6186;52.022;4.692;2023-05-24T04:15:49;102578.00;;;10.10;73.91
12247;BME280;6186;52.022;4.692;2023-05-24T04:18:14;102579.78;;;10.16;74.02
12247;BME280;6186;52.022;4.692;2023-05-24T04:20:40;102578.03;;;10.18;74.38
12247;BME280;6186;52.022;4.692;2023-05-24T04:23:05;102578.03;;;10.22;74.52
12247;BME280;6186;52.022;4.692;2023-05-24T04:25:30;102577.19;;;10.26;74.55
12247;BME280;6186;52.022;4.692;2023-05-24T04:27:56;102571.06;;;10.30;75.03
12247;BME280;6186;52.022;4.692;2023-05-24T04:30:21;102580.72;;;10.34;74.86
12247;BME280;6186;52.022;4.692;2023-05-24T04:32:46;102569.34;;;10.37;74.99
12247;BME280;6186;52.022;4.692;2023-05-24T04:35:12;102554.38;;;10.30;75.48
12247;BME280;6186;52.022;4.692;2023-05-24T04:37:37;102573.75;;;10.44;75.34
12247;BME280;6186;52.022;4.692;2023-05-24T04:40:02;102572.84;;;10.47;75.78
12247;BME280;6186;52.022;4.692;2023-05-24T04:42:28;102572.88;;;10.51;75.73
12247;BME280;6186;52.022;4.692;2023-05-24T04:44:53;102572.00;;;10.51;76.16
12247;BME280;6186;52.022;4.692;2023-05-24T04:47:18;102573.78;;;10.59;76.02
12247;BME280;6186;52.022;4.692;2023-05-24T04:49:43;102572.91;;;10.63;76.44
12247;BME280;6186;52.022;4.692;2023-05-24T04:52:09;102571.16;;;10.65;76.63
12247;BME280;6186;52.022;4.692;2023-05-24T04:54:34;102565.88;;;10.71;76.68
12247;BME280;6186;52.022;4.692;2023-05-24T04:56:59;102566.81;;;10.75;76.62
12247;BME280;6186;52.022;4.692;2023-05-24T04:59:24;102571.16;;;10.77;76.78
12247;BME280;6186;52.022;4.692;2023-05-24T05:01:50;102567.69;;;10.80;77.25
12247;BME280;6186;52.022;4.692;2023-05-24T05:04:15;102565.06;;;10.84;77.14
12247;BME280;6186;52.022;4.692;2023-05-24T05:06:41;102558.03;;;10.88;77.52
12247;BME280;6186;52.022;4.692;2023-05-24T05:09:06;102556.28;;;10.90;77.53
12247;BME280;6186;52.022;4.692;2023-05-24T05:11:32;102557.16;;;10.96;77.94
12247;BME280;6186;52.022;4.692;2023-05-24T05:13:57;102562.44;;;11.02;78.34
12247;BME280;6186;52.022;4.692;2023-05-24T05:16:22;102560.66;;;11.07;78.20
12247;BME280;6186;52.022;4.692;2023-05-24T05:18:47;102563.31;;;11.10;78.46
12247;BME280;6186;52.022;4.692;2023-05-24T05:21:13;102564.19;;;11.15;78.83
12247;BME280;6186;52.022;4.692;2023-05-24T05:23:38;102567.69;;;11.20;78.76
12247;BME280;6186;52.022;4.692;2023-05-24T05:26:03;102565.94;;;11.25;79.15
12247;BME280;6186;52.022;4.692;2023-05-24T05:28:28;102568.59;;;11.31;79.33
12247;BME280;6186;52.022;4.692;2023-05-24T05:30:54;102563.28;;;11.37;79.76
12247;BME280;6186;52.022;4.692;2023-05-24T05:33:19;102571.19;;;11.44;79.65
12247;BME280;6186;52.022;4.692;2023-05-24T05:35:44;102587.03;;;11.50;79.90
12247;BME280;6186;52.022;4.692;2023-05-24T05:38:09;102574.69;;;11.55;79.99
12247;BME280;6186;52.022;4.692;2023-05-24T05:40:34;102575.56;;;11.63;80.47
12247;BME280;6186;52.022;4.692;2023-05-24T05:43:00;102570.31;;;11.67;80.16
12247;BME280;6186;52.022;4.692;2023-05-24T05:45:25;102576.44;;;11.74;80.61
12247;BME280;6186;52.022;4.692;2023-05-24T05:47:50;102568.53;;;11.78;80.69
12247;BME280;6186;52.022;4.692;2023-05-24T05:50:15;102588.75;;;11.84;81.22
12247;BME280;6186;52.022;4.692;2023-05-24T05:52:41;102579.06;;;11.87;81.64
12247;BME280;6186;52.022;4.692;2023-05-24T05:55:07;102580.78;;;11.99;81.75
12247;BME280;6186;52.022;4.692;2023-05-24T05:57:32;102579.00;;;12.08;82.19
12247;BME280;6186;52.022;4.692;2023-05-24T05:59:57;102583.34;;;12.17;82.40
12247;BME280;6186;52.022;4.692;2023-05-24T06:02:23;102583.34;;;12.26;82.67
12247;BME280;6186;52.022;4.692;2023-05-24T06:04:48;102584.16;;;12.32;82.76
12247;BME280;6186;52.022;4.692;2023-05-24T06:07:14;102586.81;;;12.37;83.16
12247;BME280;6186;52.022;4.692;2023-05-24T06:09:39;102593.78;;;12.47;83.43
12247;BME280;6186;52.022;4.692;2023-05-24T06:12:04;102590.25;;;12.54;83.72
12247;BME280;6186;52.022;4.692;2023-05-24T06:14:30;102594.63;;;12.55;83.76
12247;BME280;6186;52.022;4.692;2023-05-24T06:16:55;102595.47;;;12.63;84.01
12247;BME280;6186;52.022;4.692;2023-05-24T06:19:20;102597.19;;;12.70;84.28
12247;BME280;6186;52.022;4.692;2023-05-24T06:21:48;102597.13;;;12.79;84.37
12247;BME280;6186;52.022;4.692;2023-05-24T06:24:14;102590.94;;;12.86;84.93
12247;BME280;6186;52.022;4.692;2023-05-24T06:26:40;102593.50;;;12.95;85.53
12247;BME280;6186;52.022;4.692;2023-05-24T06:29:05;102598.78;;;13.03;85.74
12247;BME280;6186;52.022;4.692;2023-05-24T06:31:30;102590.78;;;13.10;85.93
12247;BME280;6186;52.022;4.692;2023-05-24T06:33:55;102580.25;;;13.07;85.79
12247;BME280;6186;52.022;4.692;2023-05-24T06:36:20;102601.31;;;13.13;85.84
12247;BME280;6186;52.022;4.692;2023-05-24T06:38:46;102607.47;;;13.15;85.96
12247;BME280;6186;52.022;4.692;2023-05-24T06:41:11;102614.53;;;13.16;86.07
12247;BME280;6186;52.022;4.692;2023-05-24T06:43:36;102609.22;;;13.19;86.20
12247;BME280;6186;52.022;4.692;2023-05-24T06:46:01;102592.50;;;13.19;86.53
12247;BME280;6186;52.022;4.692;2023-05-24T06:48:27;102598.63;;;13.19;86.45
12247;BME280;6186;52.022;4.692;2023-05-24T06:50:52;102598.63;;;13.23;86.88
12247;BME280;6186;52.022;4.692;2023-05-24T06:53:17;102592.38;;;13.31;87.27
12247;BME280;6186;52.022;4.692;2023-05-24T06:55:42;102594.94;;;13.40;87.95
12247;BME280;6186;52.022;4.692;2023-05-24T06:58:07;102587.78;;;13.50;88.25
12247;BME280;6186;52.022;4.692;2023-05-24T07:00:33;102592.06;;;13.66;88.88
12247;BME280;6186;52.022;4.692;2023-05-24T07:02:58;102583.97;;;13.78;89.32
12247;BME280;6186;52.022;4.692;2023-05-24T07:05:23;102583.00;;;13.86;89.43
12247;BME280;6186;52.022;4.692;2023-05-24T07:07:48;102587.31;;;13.95;89.76
12247;BME280;6186;52.022;4.692;2023-05-24T07:10:14;102580.22;;;13.97;89.63
12247;BME280;6186;52.022;4.692;2023-05-24T07:12:39;102588.94;;;14.06;90.30
12247;BME280;6186;52.022;4.692;2023-05-24T07:15:05;102579.09;;;14.19;90.91
12247;BME280;6186;52.022;4.692;2023-05-24T07:17:31;102586.00;;;14.34;91.43
12247;BME280;6186;52.022;4.692;2023-05-24T07:19:56;102585.84;;;14.47;91.72
12247;BME280;6186;52.022;4.692;2023-05-24T07:22:21;102590.94;;;14.59;92.08
12247;BME280;6186;52.022;4.692;2023-05-24T07:24:48;102587.31;;;14.68;92.26
12247;BME280;6186;52.022;4.692;2023-05-24T07:27:13;102596.84;;;14.81;92.85
12247;BME280;6186;52.022;4.692;2023-05-24T07:29:38;102593.16;;;14.89;92.71
12247;BME280;6186;52.022;4.692;2023-05-24T07:32:04;102594.88;;;14.95;92.92
12247;BME280;6186;52.022;4.692;2023-05-24T07:34:29;102593.06;;;14.95;92.50
12247;BME280;6186;52.022;4.692;2023-05-24T07:36:55;102597.50;;;14.96;92.55
12247;BME280;6186;52.022;4.692;2023-05-24T07:39:21;102593.97;;;14.96;92.59
12247;BME280;6186;52.022;4.692;2023-05-24T07:41:46;102592.19;;;14.96;92.68
12247;BME280;6186;52.022;4.692;2023-05-24T07:44:12;102595.56;;;15.04;93.31
12247;BME280;6186;52.022;4.692;2023-05-24T07:46:37;102590.19;;;15.10;93.72
12247;BME280;6186;52.022;4.692;2023-05-24T07:49:02;102598.84;;;15.23;93.94
12247;BME280;6186;52.022;4.692;2023-05-24T07:51:28;102597.78;;;15.32;94.01
12247;BME280;6186;52.022;4.692;2023-05-24T07:53:53;102597.75;;;15.35;93.85
12247;BME280;6186;52.022;4.692;2023-05-24T07:56:18;102595.09;;;15.35;93.66
12247;BME280;6186;52.022;4.692;2023-05-24T07:58:43;102592.47;;;15.35;93.67
12247;BME280;6186;52.022;4.692;2023-05-24T08:01:08;102587.13;;;15.36;93.88
12247;BME280;6186;52.022;4.692;2023-05-24T08:03:34;102582.75;;;15.32;94.02
12247;BME280;6186;52.022;4.692;2023-05-24T08:05:59;102592.31;;;15.41;94.15
12247;BME280;6186;52.022;4.692;2023-05-24T08:08:24;102594.94;;;15.45;94.28
12247;BME280;6186;52.022;4.692;2023-05-24T08:10:49;102587.81;;;15.49;94.59
12247;BME280;6186;52.022;4.692;2023-05-24T08:13:15;102589.16;;;15.71;96.11
12247;BME280;6186;52.022;4.692;2023-05-24T08:15:40;102579.94;;;15.90;96.92
12247;BME280;6186;52.022;4.692;2023-05-24T08:18:05;102588.31;;;16.15;97.52
12247;BME280;6186;52.022;4.692;2023-05-24T08:20:30;102587.03;;;16.34;97.48
12247;BME280;6186;52.022;4.692;2023-05-24T08:22:56;102586.94;;;16.38;96.72
12247;BME280;6186;52.022;4.692;2023-05-24T08:25:21;102584.38;;;16.34;96.25
12247;BME280;6186;52.022;4.692;2023-05-24T08:27:46;102576.50;;;16.28;95.98
12247;BME280;6186;52.022;4.692;2023-05-24T08:30:12;102564.22;;;16.24;96.41
12247;BME280;6186;52.022;4.692;2023-05-24T08:32:37;102573.47;;;16.46;96.85
12247;BME280;6186;52.022;4.692;2023-05-24T08:35:03;102567.94;;;16.56;97.48
12247;BME280;6186;52.022;4.692;2023-05-24T08:37:28;102579.78;;;16.81;98.41
12247;BME280;6186;52.022;4.692;2023-05-24T08:39:53;102567.66;;;17.07;99.13
12247;BME280;6186;52.022;4.692;2023-05-24T08:42:20;102571.63;;;17.26;98.96
12247;BME280;6186;52.022;4.692;2023-05-24T08:44:52;102578.31;;;17.40;98.80
12247;BME280;6186;52.022;4.692;2023-05-24T08:47:22;102585.16;;;17.52;98.53
12247;BME280;6186;52.022;4.692;2023-05-24T08:49:50;102572.22;;;17.70;99.18
12247;BME280;6186;52.022;4.692;2023-05-24T08:52:15;102582.25;;;17.93;99.97
12247;BME280;6186;52.022;4.692;2023-05-24T08:54:41;102570.16;;;18.12;99.79
12247;BME280;6186;52.022;4.692;2023-05-24T08:57:09;102575.88;;;18.29;99.89
12247;BME280;6186;52.022;4.692;2023-05-24T08:59:34;102580.03;;;18.39;99.47
12247;BME280;6186;52.022;4.692;2023-05-24T09:02:00;102575.09;;;18.56;99.89
12247;BME280;6186;52.022;4.692;2023-05-24T09:04:26;102571.78;;;18.76;100.00
12247;BME280;6186;52.022;4.692;2023-05-24T09:06:53;102570.97;;;19.02;100.00
12247;BME280;6186;52.022;4.692;2023-05-24T09:09:20;102580.97;;;19.21;100.00
12247;BME280;6186;52.022;4.692;2023-05-24T09:11:48;102571.78;;;19.30;99.99
12247;BME280;6186;52.022;4.692;2023-05-24T09:14:14;102582.34;;;19.34;99.82
12247;BME280;6186;52.022;4.692;2023-05-24T09:16:39;102571.50;;;19.39;99.83
12247;BME280;6186;52.022;4.692;2023-05-24T09:19:05;102586.00;;;19.32;98.18
12247;BME280;6186;52.022;4.692;2023-05-24T09:21:30;102586.25;;;19.23;98.28
12247;BME280;6186;52.022;4.692;2023-05-24T09:23:56;102589.97;;;19.19;98.19
12247;BME280;6186;52.022;4.692;2023-05-24T09:26:21;102579.56;;;19.10;97.90
12247;BME280;6186;52.022;4.692;2023-05-24T09:28:47;102555.22;;;18.93;97.60
12247;BME280;6186;52.022;4.692;2023-05-24T09:31:12;102575.38;;;19.03;97.56
12247;BME280;6186;52.022;4.692;2023-05-24T09:33:37;102572.56;;;19.07;98.51
12247;BME280;6186;52.022;4.692;2023-05-24T09:36:04;102571.88;;;19.27;99.59
12247;BME280;6186;52.022;4.692;2023-05-24T09:38:30;102573.63;;;19.28;98.63
12247;BME280;6186;52.022;4.692;2023-05-24T09:41:00;102562.28;;;19.21;98.13
12247;BME280;6186;52.022;4.692;2023-05-24T09:43:25;102571.53;;;19.11;97.19
12247;BME280;6186;52.022;4.692;2023-05-24T09:45:50;102558.47;;;19.02;97.17
12247;BME280;6186;52.022;4.692;2023-05-24T09:48:16;102548.97;;;18.94;96.80
12247;BME280;6186;52.022;4.692;2023-05-24T09:50:42;102554.41;;;18.91;96.79
12247;BME280;6186;52.022;4.692;2023-05-24T09:53:08;102553.59;;;18.89;97.11
12247;BME280;6186;52.022;4.692;2023-05-24T09:55:36;102555.34;;;18.90;96.74
12247;BME280;6186;52.022;4.692;2023-05-24T09:58:08;102550.13;;;18.85;95.95
12247;BME280;6186;52.022;4.692;2023-05-24T10:00:36;102558.47;;;19.02;97.14
12247;BME280;6186;52.022;4.692;2023-05-24T10:03:04;102550.13;;;19.39;99.24
12247;BME280;6186;52.022;4.692;2023-05-24T10:05:29;102551.53;;;19.75;100.00
12247;BME280;6186;52.022;4.692;2023-05-24T10:07:56;102547.50;;;20.11;100.00
12247;BME280;6186;52.022;4.692;2023-05-24T10:10:21;102553.81;;;20.33;100.00
12247;BME280;6186;52.022;4.692;2023-05-24T10:12:47;102553.78;;;20.56;100.00
12247;BME280;6186;52.022;4.692;2023-05-24T10:15:14;102552.22;;;20.73;100.00
12247;BME280;6186;52.022;4.692;2023-05-24T10:17:39;102545.03;;;20.96;100.00
12247;BME280;6186;52.022;4.692;2023-05-24T10:20:05;102544.50;;;21.10;100.00
12247;BME280;6186;52.022;4.692;2023-05-24T10:22:31;102546.13;;;21.14;100.00
12247;BME280;6186;52.022;4.692;2023-05-24T10:25:02;102544.66;;;21.05;99.50
12247;BME280;6186;52.022;4.692;2023-05-24T10:27:30;102540.94;;;21.09;99.20
12247;BME280;6186;52.022;4.692;2023-05-24T10:33:05;102541.97;;;21.47;100.00
12247;BME280;6186;52.022;4.692;2023-05-24T10:35:32;102541.25;;;21.64;100.00
12247;BME280;6186;52.022;4.692;2023-05-24T10:37:57;102536.16;;;21.78;99.56
12247;BME280;6186;52.022;4.692;2023-05-24T10:40:23;102532.06;;;21.69;98.46
12247;BME280;6186;52.022;4.692;2023-05-24T10:42:48;102535.03;;;21.63;97.44
12247;BME280;6186;52.022;4.692;2023-05-24T10:45:29;102539.22;;;21.48;95.56
12247;BME280;6186;52.022;4.692;2023-05-24T10:47:55;102541.69;;;21.13;93.61
12247;BME280;6186;52.022;4.692;2023-05-24T10:50:21;102547.28;;;20.85;92.71
12247;BME280;6186;52.022;4.692;2023-05-24T10:52:49;102546.28;;;20.66;92.71
12247;BME280;6186;52.022;4.692;2023-05-24T10:55:18;102543.09;;;20.56;92.81
12247;BME280;6186;52.022;4.692;2023-05-24T10:57:44;102541.19;;;20.37;91.53
12247;BME280;6186;52.022;4.692;2023-05-24T11:02:50;102542.72;;;20.21;91.99
12247;BME280;6186;52.022;4.692;2023-05-24T11:05:15;102533.31;;;20.09;90.78
12247;BME280;6186;52.022;4.692;2023-05-24T11:07:41;102540.00;;;19.98;90.89
12247;BME280;6186;52.022;4.692;2023-05-24T11:10:08;102540.28;;;19.90;90.67
12247;BME280;6186;52.022;4.692;2023-05-24T11:12:34;102537.81;;;19.84;90.74
12247;BME280;6186;52.022;4.692;2023-05-24T11:15:00;102546.72;;;19.85;90.72
12247;BME280;6186;52.022;4.692;2023-05-24T11:17:26;102543.28;;;19.81;90.49
12247;BME280;6186;52.022;4.692;2023-05-24T11:19:53;102545.16;;;19.79;90.41
12247;BME280;6186;52.022;4.692;2023-05-24T11:22:20;102547.09;;;19.74;90.07
12247;BME280;6186;52.022;4.692;2023-05-24T11:24:46;102549.00;;;19.70;89.70
12247;BME280;6186;52.022;4.692;2023-05-24T11:27:12;102542.19;;;19.62;89.31
12247;BME280;6186;52.022;4.692;2023-05-24T11:29:44;102544.19;;;19.55;88.96
12247;BME280;6186;52.022;4.692;2023-05-24T11:32:18;102544.97;;;19.59;89.57
12247;BME280;6186;52.022;4.692;2023-05-24T11:34:45;102545.09;;;19.56;88.94
12247;BME280;6186;52.022;4.692;2023-05-24T11:37:11;102554.25;;;19.49;88.42
12247;BME280;6186;52.022;4.692;2023-05-24T11:39:36;102550.00;;;19.43;88.11
12247;BME280;6186;52.022;4.692;2023-05-24T11:42:08;102547.47;;;19.39;88.03
12247;BME280;6186;52.022;4.692;2023-05-24T11:44:34;102543.28;;;19.32;87.56
12247;BME280;6186;52.022;4.692;2023-05-24T11:47:01;102540.91;;;19.21;87.28
12247;BME280;6186;52.022;4.692;2023-05-24T11:49:27;102547.03;;;19.25;87.68
12247;BME280;6186;52.022;4.692;2023-05-24T11:51:54;102556.66;;;19.30;88.51
12247;BME280;6186;52.022;4.692;2023-05-24T11:54:19;102542.88;;;19.42;88.78
12247;BME280;6186;52.022;4.692;2023-05-24T11:56:46;102546.31;;;19.46;88.38
12247;BME280;6186;52.022;4.692;2023-05-24T11:59:24;102540.22;;;19.42;87.94
12247;BME280;6186;52.022;4.692;2023-05-24T12:02:03;102547.59;;;19.36;87.98
12247;BME280;6186;52.022;4.692;2023-05-24T12:04:29;102546.75;;;19.34;87.91
12247;BME280;6186;52.022;4.692;2023-05-24T12:06:55;102541.41;;;19.34;87.88
12247;BME280;6186;52.022;4.692;2023-05-24T12:09:21;102541.47;;;19.31;87.81
12247;BME280;6186;52.022;4.692;2023-05-24T12:11:48;102540.53;;;19.33;87.91
12247;BME280;6186;52.022;4.692;2023-05-24T12:14:16;102536.19;;;19.29;87.57
12247;BME280;6186;52.022;4.692;2023-05-24T12:16:42;102535.38;;;19.27;87.79
12247;BME280;6186;52.022;4.692;2023-05-24T12:19:18;102527.41;;;19.26;87.83
12247;BME280;6186;52.022;4.692;2023-05-24T12:21:44;102534.59;;;19.24;87.34
12247;BME280;6186;52.022;4.692;2023-05-24T12:24:10;102544.53;;;19.20;86.95
12247;BME280;6186;52.022;4.692;2023-05-24T12:26:40;102544.72;;;19.14;86.76
12247;BME280;6186;52.022;4.692;2023-05-24T12:29:05;102538.69;;;19.08;86.60
12247;BME280;6186;52.022;4.692;2023-05-24T12:31:31;102535.31;;;19.03;86.52
12247;BME280;6186;52.022;4.692;2023-05-24T12:33:56;102534.75;;;18.93;85.82
12247;BME280;6186;52.022;4.692;2023-05-24T12:36:22;102537.47;;;18.92;86.21
12247;BME280;6186;52.022;4.692;2023-05-24T12:38:47;102542.94;;;18.89;85.94
12247;BME280;6186;52.022;4.692;2023-05-24T12:41:12;102543.00;;;18.86;86.21
12247;BME280;6186;52.022;4.692;2023-05-24T12:43:38;102537.66;;;18.86;86.00
12247;BME280;6186;52.022;4.692;2023-05-24T12:46:03;102537.66;;;18.86;86.29
12247;BME280;6186;52.022;4.692;2023-05-24T12:48:29;102535.81;;;18.88;86.68
12247;BME280;6186;52.022;4.692;2023-05-24T12:50:54;102521.84;;;18.79;86.72
12247;BME280;6186;52.022;4.692;2023-05-24T12:53:19;102536.59;;;18.91;86.59
12247;BME280;6186;52.022;4.692;2023-05-24T12:55:44;102540.66;;;19.03;87.46
12247;BME280;6186;52.022;4.692;2023-05-24T12:58:10;102550.19;;;19.11;87.63
12247;BME280;6186;52.022;4.692;2023-05-24T13:00:36;102544.53;;;19.20;87.99
12247;BME280;6186;52.022;4.692;2023-05-24T13:03:01;102532.66;;;19.29;88.44
12247;BME280;6186;52.022;4.692;2023-05-24T13:05:27;102535.97;;;19.37;88.10
12247;BME280;6186;52.022;4.692;2023-05-24T13:07:54;102537.53;;;19.42;88.49